Time;durP1;ratioP1;P1;durP2;ratioP2;P2;SDS_P1;SDS_P2;PMS_P1;PMS_P2;Temp;Humidity;BMP_temperature;BMP_pressure;BME280_temperature;BME280_humidity;BME280_pressure;Samples;Min_cycle;Max_cycle;Signal;HPM_P1;HPM_P2
2024/01/17 00:00:56;;;;;;;19.73;8.32;;;-1.20;57.90;;;;;;4965418;28;116228;-81
2024/01/17 00:03:23;;;;;;;15.73;7.72;;;-1.20;57.90;;;;;;4967087;28;114543;-81
2024/01/17 00:05:51;;;;;;;15.27;7.90;;;-1.20;57.90;;;;;;4982570;28;114696;-81
2024/01/17 00:08:20;;;;;;;14.77;7.97;;;-1.20;57.90;;;;;;4965470;28;115686;-80
2024/01/17 00:10:48;;;;;;;19.13;8.57;;;-1.20;57.90;;;;;;4981816;28;114757;-80
2024/01/17 00:13:15;;;;;;;15.10;7.40;;;-1.20;57.80;;;;;;5006054;28;114356;-79
2024/01/17 00:15:43;;;;;;;12.75;7.05;;;-1.20;57.80;;;;;;4971524;28;114759;-81
2024/01/17 00:18:10;;;;;;;14.68;6.60;;;-1.30;57.90;;;;;;4981931;28;115665;-79
2024/01/17 00:20:38;;;;;;;15.85;7.03;;;-1.20;58.10;;;;;;4966316;28;114533;-80
2024/01/17 00:23:05;;;;;;;20.88;7.38;;;-1.20;58.10;;;;;;4982995;28;114636;-80
2024/01/17 00:25:32;;;;;;;15.57;7.82;;;-1.30;58.10;;;;;;4982733;28;114905;-80
2024/01/17 00:27:59;;;;;;;13.70;6.57;;;-1.20;58.10;;;;;;4966651;28;115018;-81
2024/01/17 00:30:27;;;;;;;13.32;6.95;;;-1.20;58.10;;;;;;4949358;28;116005;-82
2024/01/17 00:33:00;;;;;;;14.07;6.97;;;-1.20;58.00;;;;;;4966049;28;114699;-82
2024/01/17 00:35:28;;;;;;;14.23;6.85;;;-1.20;58.10;;;;;;4968068;28;114610;-81
2024/01/17 00:37:56;;;;;;;11.43;7.07;;;-1.20;58.10;;;;;;4984280;28;115991;-81
2024/01/17 00:40:24;;;;;;;15.93;7.65;;;-1.20;58.20;;;;;;4983411;28;114353;-81
2024/01/17 00:42:55;;;;;;;13.48;7.47;;;-1.20;58.20;;;;;;4970624;28;114382;-81
2024/01/17 00:45:22;;;;;;;17.10;7.47;;;-1.20;58.10;;;;;;4967395;28;114755;-81
2024/01/17 00:47:49;;;;;;;14.23;6.70;;;-1.20;58.10;;;;;;4967230;28;115145;-81
2024/01/17 00:50:18;;;;;;;17.15;7.50;;;-1.20;58.00;;;;;;4982175;28;115401;-80
2024/01/17 00:52:45;;;;;;;19.45;7.78;;;-1.20;58.10;;;;;;4977448;28;114426;-80
2024/01/17 00:55:13;;;;;;;16.27;7.95;;;-1.20;58.00;;;;;;4982816;28;114601;-81
2024/01/17 00:57:40;;;;;;;16.63;7.75;;;-1.20;58.00;;;;;;4981521;28;115083;-80
2024/01/17 01:00:08;;;;;;;20.20;8.93;;;-1.20;57.90;;;;;;4967087;28;114616;-81
2024/01/17 01:02:35;;;;;;;17.75;8.05;;;-1.30;57.70;;;;;;4982488;28;114785;-82
2024/01/17 01:05:03;;;;;;;14.63;8.02;;;-1.30;57.80;;;;;;4967707;28;114727;-81
2024/01/17 01:07:30;;;;;;;18.05;7.32;;;-1.40;57.80;;;;;;4966603;28;115231;-81
2024/01/17 01:10:04;;;;;;;13.25;7.55;;;-1.40;57.80;;;;;;4966336;28;114651;-81
2024/01/17 01:12:34;;;;;;;17.13;7.95;;;-1.40;58.00;;;;;;4966780;28;114592;-81
2024/01/17 01:15:01;;;;;;;18.67;7.90;;;-1.40;58.00;;;;;;4981854;28;114456;-81
2024/01/17 01:17:29;;;;;;;16.17;7.70;;;-1.40;58.00;;;;;;4964140;28;116610;-81
2024/01/17 01:19:56;;;;;;;16.98;7.30;;;-1.50;58.00;;;;;;4965981;28;114681;-81
2024/01/17 01:22:25;;;;;;;12.73;7.32;;;-1.50;58.10;;;;;;4965228;28;114809;-81
2024/01/17 01:24:53;;;;;;;17.48;8.35;;;-1.50;58.20;;;;;;4981948;28;114762;-81
2024/01/17 01:27:21;;;;;;;17.20;7.90;;;-1.50;58.10;;;;;;4962830;28;116238;-81
2024/01/17 01:29:48;;;;;;;19.00;8.98;;;-1.50;58.00;;;;;;4965168;28;114613;-81
2024/01/17 01:32:15;;;;;;;15.73;7.90;;;-1.60;58.00;;;;;;4981776;28;114662;-81
2024/01/17 01:34:43;;;;;;;14.18;7.32;;;-1.60;58.20;;;;;;4981349;28;114736;-81
2024/01/17 01:37:10;;;;;;;18.88;8.40;;;-1.60;58.40;;;;;;4980458;28;115103;-80
2024/01/17 01:39:38;;;;;;;18.67;9.77;;;-1.60;58.40;;;;;;4965358;28;114817;-80
2024/01/17 01:42:05;;;;;;;16.63;8.15;;;-1.60;58.50;;;;;;4965838;28;114373;-80
2024/01/17 01:44:36;;;;;;;24.27;8.88;;;-1.60;58.50;;;;;;4966071;28;114782;-80
2024/01/17 01:47:08;;;;;;;17.38;8.73;;;-1.60;58.50;;;;;;4963162;28;115162;-80
2024/01/17 01:49:37;;;;;;;19.90;9.15;;;-1.60;58.50;;;;;;4979249;28;115934;-81
2024/01/17 01:52:06;;;;;;;20.08;9.57;;;-1.60;58.60;;;;;;4964549;28;114521;-81
2024/01/17 01:54:34;;;;;;;20.60;8.70;;;-1.60;58.50;;;;;;4980720;28;114389;-80
2024/01/17 01:57:01;;;;;;;19.98;9.15;;;-1.70;58.60;;;;;;4947913;28;117263;-79
2024/01/17 01:59:29;;;;;;;23.48;8.93;;;-1.80;58.50;;;;;;4976715;28;116081;-80
2024/01/17 02:01:58;;;;;;;22.25;10.65;;;-1.70;58.60;;;;;;4978162;28;114349;-80
2024/01/17 02:04:27;;;;;;;20.52;9.40;;;-1.70;58.70;;;;;;4981619;28;114479;-80
2024/01/17 02:06:54;;;;;;;19.65;9.45;;;-1.70;58.70;;;;;;4980680;28;115097;-80
2024/01/17 02:09:22;;;;;;;20.38;9.27;;;-1.80;58.80;;;;;;4968034;28;115989;-80
2024/01/17 02:11:50;;;;;;;19.25;9.77;;;-1.80;58.80;;;;;;4984567;28;114974;-80
2024/01/17 02:14:19;;;;;;;16.45;9.15;;;-1.70;58.80;;;;;;4985347;28;114658;-81
2024/01/17 02:16:48;;;;;;;19.92;10.18;;;-1.70;58.80;;;;;;4967608;28;116447;-81
2024/01/17 02:19:16;;;;;;;22.55;9.82;;;-1.80;58.80;;;;;;4951523;28;114927;-80
2024/01/17 02:21:44;;;;;;;16.08;7.93;;;-1.80;58.80;;;;;;4973362;28;114613;-80
2024/01/17 02:24:23;;;;;;;17.10;7.60;;;-1.90;58.70;;;;;;4969741;28;114345;-80
2024/01/17 02:26:51;;;;;;;14.35;7.45;;;-1.90;59.00;;;;;;4982380;28;115023;-80
2024/01/17 02:29:18;;;;;;;17.92;8.45;;;-1.90;58.90;;;;;;4983228;28;115791;-80
2024/01/17 02:31:45;;;;;;;14.40;7.07;;;-1.90;59.10;;;;;;4967463;28;115122;-80
2024/01/17 02:34:13;;;;;;;14.13;7.10;;;-1.90;59.00;;;;;;4967326;28;114857;-81
2024/01/17 02:36:41;;;;;;;13.48;7.35;;;-1.90;59.10;;;;;;4967659;28;115128;-81
2024/01/17 02:39:11;;;;;;;13.82;6.55;;;-1.90;59.20;;;;;;4966825;28;114649;-81
2024/01/17 02:41:38;;;;;;;17.20;7.72;;;-1.90;59.20;;;;;;4983739;28;114424;-81
2024/01/17 02:44:05;;;;;;;12.38;6.38;;;-1.90;59.10;;;;;;4967717;28;114845;-80
2024/01/17 02:46:33;;;;;;;14.20;7.20;;;-1.90;59.10;;;;;;4966277;28;116581;-80
2024/01/17 02:49:00;;;;;;;15.25;6.00;;;-1.90;59.10;;;;;;4966050;28;116363;-80
2024/01/17 02:51:28;;;;;;;11.93;5.50;;;-1.90;59.00;;;;;;4967222;28;114722;-80
2024/01/17 02:53:55;;;;;;;15.05;6.28;;;-1.80;58.80;;;;;;4968682;28;114739;-80
2024/01/17 02:56:23;;;;;;;11.60;5.32;;;-1.80;58.70;;;;;;4967631;28;115074;-80
2024/01/17 02:58:50;;;;;;;9.60;4.82;;;-1.80;58.70;;;;;;4967144;28;115388;-80
2024/01/17 03:01:17;;;;;;;9.10;5.55;;;-1.90;58.70;;;;;;4967737;28;114612;-80
2024/01/17 03:03:45;;;;;;;14.38;5.47;;;-1.80;58.50;;;;;;4968263;28;114426;-81
2024/01/17 03:06:12;;;;;;;10.70;5.53;;;-1.80;58.40;;;;;;4967808;28;115140;-81
2024/01/17 03:08:40;;;;;;;10.23;4.13;;;-1.90;58.10;;;;;;4966970;28;115851;-81
2024/01/17 03:11:19;;;;;;;9.80;4.70;;;-1.90;57.90;;;;;;4970371;28;114613;-79
2024/01/17 03:13:47;;;;;;;9.13;4.13;;;-2.00;57.60;;;;;;4969330;28;114124;-80
2024/01/17 03:16:19;;;;;;;7.22;4.10;;;-2.00;57.60;;;;;;4987669;28;114488;-79
2024/01/17 03:18:46;;;;;;;9.57;4.22;;;-2.10;57.60;;;;;;4971525;28;115607;-81
2024/01/17 03:21:14;;;;;;;8.93;4.40;;;-2.10;57.70;;;;;;4950841;28;114666;-81
2024/01/17 03:23:41;;;;;;;9.32;4.60;;;-2.10;57.90;;;;;;4968758;28;115410;-81
2024/01/17 03:26:09;;;;;;;9.95;4.75;;;-2.10;57.90;;;;;;4975294;28;115129;-80
2024/01/17 03:28:37;;;;;;;10.82;4.95;;;-2.00;58.00;;;;;;4967769;28;114225;-80
2024/01/17 03:31:04;;;;;;;12.10;5.53;;;-2.00;58.00;;;;;;4960796;28;115217;-81
2024/01/17 03:33:31;;;;;;;9.55;4.47;;;-2.00;58.00;;;;;;4966693;28;114561;-80
2024/01/17 03:35:59;;;;;;;9.88;4.80;;;-1.90;57.90;;;;;;4967137;28;116179;-81
2024/01/17 03:38:26;;;;;;;7.22;4.30;;;-1.90;58.10;;;;;;4966789;28;115392;-81
2024/01/17 03:40:56;;;;;;;8.40;4.20;;;-1.90;57.70;;;;;;4966616;28;114451;-82
2024/01/17 03:43:23;;;;;;;10.13;4.68;;;-2.00;57.80;;;;;;4952936;28;114476;-82
2024/01/17 03:45:53;;;;;;;10.00;4.43;;;-2.00;57.80;;;;;;4969620;28;113936;-80
2024/01/17 03:48:20;;;;;;;9.90;4.30;;;-2.00;57.70;;;;;;4966736;28;114255;-80
2024/01/17 03:50:48;;;;;;;10.60;4.53;;;-2.00;57.80;;;;;;4966580;28;114398;-79
2024/01/17 03:53:15;;;;;;;8.85;4.30;;;-1.90;57.90;;;;;;4968513;28;114425;-80
2024/01/17 03:55:43;;;;;;;11.27;4.90;;;-1.90;57.90;;;;;;4967338;28;114504;-79
2024/01/17 03:58:10;;;;;;;8.88;4.57;;;-1.90;57.90;;;;;;4933679;28;114605;-80
2024/01/17 04:00:37;;;;;;;8.13;4.35;;;-1.90;57.80;;;;;;4977757;28;114371;-80
2024/01/17 04:03:05;;;;;;;9.63;4.40;;;-1.90;57.90;;;;;;4972477;28;114516;-79
2024/01/17 04:05:35;;;;;;;9.55;3.88;;;-1.90;57.80;;;;;;4965758;28;117577;-80
2024/01/17 04:08:02;;;;;;;8.85;4.25;;;-1.90;57.40;;;;;;4966312;28;114685;-81
2024/01/17 04:10:31;;;;;;;10.52;4.50;;;-1.90;57.50;;;;;;4969549;28;114586;-81
2024/01/17 04:12:58;;;;;;;7.32;4.05;;;-1.90;57.50;;;;;;4969600;28;114510;-81
2024/01/17 04:15:26;;;;;;;8.57;4.18;;;-1.90;57.50;;;;;;4966897;28;114961;-80
2024/01/17 04:17:53;;;;;;;11.07;4.40;;;-1.90;57.50;;;;;;4964206;28;114774;-80
2024/01/17 04:20:20;;;;;;;10.88;5.57;;;-1.80;57.50;;;;;;4968070;28;114348;-80
2024/01/17 04:22:48;;;;;;;9.80;4.55;;;-1.80;57.50;;;;;;4968672;28;114332;-81
2024/01/17 04:25:15;;;;;;;9.55;4.28;;;-1.80;57.10;;;;;;4965933;28;115056;-80
2024/01/17 04:27:42;;;;;;;7.50;4.22;;;-1.90;56.90;;;;;;4964749;28;114654;-81
2024/01/17 04:30:14;;;;;;;10.20;4.22;;;-2.00;57.10;;;;;;4965576;28;114695;-81
2024/01/17 04:32:43;;;;;;;6.85;3.72;;;-2.00;57.20;;;;;;4967001;28;114659;-80
2024/01/17 04:35:11;;;;;;;7.45;3.47;;;-1.90;56.80;;;;;;4948630;28;116022;-80
2024/01/17 04:37:39;;;;;;;6.85;3.85;;;-2.10;56.20;;;;;;4981280;28;114865;-81
2024/01/17 04:40:08;;;;;;;7.07;3.25;;;-2.10;55.90;;;;;;4966126;28;114426;-82
2024/01/17 04:42:35;;;;;;;11.57;4.00;;;-2.30;56.00;;;;;;4966522;28;114596;-82
2024/01/17 04:45:05;;;;;;;7.95;3.53;;;-2.30;56.00;;;;;;4963930;28;116741;-81
2024/01/17 04:47:33;;;;;;;6.30;2.95;;;-2.40;56.10;;;;;;4965723;28;114811;-82
2024/01/17 04:50:00;;;;;;;9.70;3.10;;;-2.30;55.90;;;;;;4965885;28;114591;-81
2024/01/17 04:52:28;;;;;;;5.22;2.83;;;-2.40;56.00;;;;;;4965458;28;114499;-81
2024/01/17 04:54:56;;;;;;;7.18;2.75;;;-2.40;56.00;;;;;;4947924;28;116556;-82
2024/01/17 04:57:23;;;;;;;8.80;3.33;;;-2.40;56.00;;;;;;4932648;28;114635;-80
2024/01/17 04:59:50;;;;;;;8.90;3.08;;;-2.40;56.00;;;;;;4966408;28;114550;-82
2024/01/17 05:02:18;;;;;;;7.05;3.00;;;-2.40;55.80;;;;;;4964686;28;114536;-82
2024/01/17 05:04:46;;;;;;;7.28;3.08;;;-2.40;55.70;;;;;;4964590;28;115353;-81
2024/01/17 05:07:13;;;;;;;6.43;3.65;;;-2.40;55.90;;;;;;4980911;28;115615;-80
2024/01/17 05:09:44;;;;;;;7.03;3.17;;;-2.40;55.90;;;;;;4964752;28;114526;-82
2024/01/17 05:12:11;;;;;;;6.13;2.42;;;-2.40;55.90;;;;;;4965187;28;117207;-82
2024/01/17 05:14:39;;;;;;;7.80;3.20;;;-2.40;55.70;;;;;;4964894;28;115820;-81
2024/01/17 05:17:07;;;;;;;7.05;2.88;;;-2.40;55.70;;;;;;4963269;28;115614;-81
2024/01/17 05:19:35;;;;;;;9.07;2.85;;;-2.40;55.10;;;;;;4964975;28;114860;-81
2024/01/17 05:22:03;;;;;;;8.63;3.72;;;-2.50;54.80;;;;;;4949547;28;114582;-81
2024/01/17 05:24:31;;;;;;;5.57;2.63;;;-2.50;55.30;;;;;;4980799;28;115544;-81
2024/01/17 05:26:59;;;;;;;8.00;3.58;;;-2.60;55.50;;;;;;4965200;28;115498;-81
2024/01/17 05:29:30;;;;;;;9.93;3.25;;;-2.60;55.50;;;;;;4986323;28;114358;-81
2024/01/17 05:31:57;;;;;;;9.10;3.80;;;-2.50;55.60;;;;;;4971868;28;114283;-82
2024/01/17 05:34:25;;;;;;;10.70;3.97;;;-2.50;55.80;;;;;;4964918;28;115720;-81
2024/01/17 05:36:52;;;;;;;8.98;3.50;;;-2.50;55.50;;;;;;4965669;28;114702;-80
2024/01/17 05:39:19;;;;;;;11.38;3.88;;;-2.60;55.50;;;;;;4953576;28;114428;-80
2024/01/17 05:41:47;;;;;;;9.95;3.78;;;-2.60;55.70;;;;;;4971852;28;114500;-81
2024/01/17 05:44:14;;;;;;;8.13;4.28;;;-2.50;56.00;;;;;;4932879;28;115118;-82
2024/01/17 05:46:42;;;;;;;8.57;3.50;;;-2.50;56.00;;;;;;4980763;28;115982;-81
2024/01/17 05:49:09;;;;;;;10.93;3.53;;;-2.40;55.40;;;;;;4966683;28;114315;-82
2024/01/17 05:51:37;;;;;;;7.13;3.33;;;-2.50;55.30;;;;;;4968358;28;114283;-84
2024/01/17 05:54:07;;;;;;;9.52;4.13;;;-2.50;55.50;;;;;;4966825;28;116119;-82
2024/01/17 05:56:37;;;;;;;10.55;3.80;;;-2.50;55.70;;;;;;4984150;28;115569;-82
2024/01/17 05:59:05;;;;;;;9.48;4.18;;;-2.50;55.50;;;;;;4970786;28;114661;-81
2024/01/17 06:01:34;;;;;;;8.63;3.85;;;-2.50;55.90;;;;;;4935981;28;114973;-81
2024/01/17 06:04:02;;;;;;;7.88;3.75;;;-2.40;56.00;;;;;;4945962;28;114859;-82
2024/01/17 06:06:29;;;;;;;9.27;4.82;;;-2.40;56.00;;;;;;4960131;28;114852;-81
2024/01/17 06:08:58;;;;;;;7.00;3.83;;;-2.30;55.90;;;;;;4957871;28;114308;-82
2024/01/17 06:11:25;;;;;;;8.30;4.50;;;-2.40;55.60;;;;;;4955189;28;114429;-82
2024/01/17 06:13:53;;;;;;;9.35;3.65;;;-2.40;55.90;;;;;;4948582;28;115321;-83
2024/01/17 06:16:20;;;;;;;9.07;3.20;;;-2.30;55.90;;;;;;4955589;28;114815;-81
2024/01/17 06:18:47;;;;;;;6.03;3.15;;;-2.30;55.50;;;;;;4954754;28;115551;-81
2024/01/17 06:21:15;;;;;;;8.90;3.85;;;-2.40;55.50;;;;;;4927007;28;114895;-83
2024/01/17 06:23:44;;;;;;;7.72;3.58;;;-2.40;55.60;;;;;;4954418;28;115352;-83
2024/01/17 06:26:14;;;;;;;5.43;3.03;;;-2.40;56.00;;;;;;4970733;28;115384;-81
2024/01/17 06:28:41;;;;;;;6.43;2.90;;;-2.40;55.90;;;;;;4952477;28;114510;-81
2024/01/17 06:31:09;;;;;;;9.65;4.38;;;-2.40;55.90;;;;;;4935096;28;114687;-82
2024/01/17 06:33:39;;;;;;;11.88;4.20;;;-2.40;56.00;;;;;;4951596;28;115813;-81
2024/01/17 06:36:10;;;;;;;8.15;4.28;;;-2.30;56.00;;;;;;4958911;28;114538;-82
2024/01/17 06:38:41;;;;;;;8.50;4.10;;;-2.30;56.10;;;;;;4945115;28;114637;-83
2024/01/17 06:41:08;;;;;;;8.60;4.00;;;-2.20;56.10;;;;;;4944922;28;114275;-80
2024/01/17 06:43:36;;;;;;;8.82;4.00;;;-2.20;56.10;;;;;;4958859;28;115136;-81
2024/01/17 06:46:04;;;;;;;7.38;3.28;;;-2.10;56.10;;;;;;4959456;28;114642;-81
2024/01/17 06:48:31;;;;;;;5.72;3.30;;;-2.10;55.90;;;;;;4949124;28;114530;-81
2024/01/17 06:50:59;;;;;;;7.30;3.35;;;-2.10;55.90;;;;;;4951701;28;114946;-80
2024/01/17 06:53:26;;;;;;;7.43;3.28;;;-2.10;55.80;;;;;;4947164;28;116439;-81
2024/01/17 06:55:54;;;;;;;8.35;4.22;;;-2.10;55.80;;;;;;4964898;28;114689;-80
2024/01/17 06:58:22;;;;;;;8.57;3.65;;;-2.10;55.70;;;;;;4954917;28;114511;-81
2024/01/17 07:00:49;;;;;;;8.05;3.28;;;-2.10;55.60;;;;;;4978019;28;114725;-81
2024/01/17 07:03:17;;;;;;;6.00;3.25;;;-2.10;55.30;;;;;;4964611;28;116628;-84
2024/01/17 07:05:45;;;;;;;8.85;4.22;;;-2.10;55.30;;;;;;4964852;28;116702;-81
2024/01/17 07:08:14;;;;;;;9.32;4.30;;;-2.20;55.50;;;;;;4981185;28;114682;-81
2024/01/17 07:10:44;;;;;;;7.30;3.67;;;-2.10;55.70;;;;;;4966931;28;114813;-81
2024/01/17 07:13:12;;;;;;;7.70;3.88;;;-2.10;55.80;;;;;;4949773;28;115021;-81
2024/01/17 07:15:39;;;;;;;8.63;3.90;;;-2.00;55.60;;;;;;4966984;28;115313;-81
2024/01/17 07:18:07;;;;;;;9.48;3.92;;;-2.00;55.80;;;;;;4976332;28;114353;-81
2024/01/17 07:20:34;;;;;;;7.65;3.78;;;-1.90;55.80;;;;;;4983129;28;114452;-80
2024/01/17 07:23:04;;;;;;;9.13;3.88;;;-1.80;55.90;;;;;;5003405;28;114262;-82
2024/01/17 07:25:32;;;;;;;8.50;4.15;;;-1.60;55.60;;;;;;4971008;28;116264;-81
2024/01/17 07:28:00;;;;;;;8.35;4.22;;;-1.60;55.40;;;;;;4936107;28;114528;-80
2024/01/17 07:30:28;;;;;;;7.72;3.95;;;-1.50;55.60;;;;;;4967279;28;114783;-81
2024/01/17 07:32:59;;;;;;;9.85;4.78;;;-1.40;55.30;;;;;;4966763;28;115274;-81
2024/01/17 07:35:29;;;;;;;10.05;4.30;;;-1.40;55.50;;;;;;4966539;28;115266;-82
2024/01/17 07:37:58;;;;;;;10.40;3.97;;;-1.20;55.30;;;;;;4966725;28;114644;-80
2024/01/17 07:40:26;;;;;;;8.38;4.57;;;-1.00;55.40;;;;;;4966453;28;114537;-81
2024/01/17 07:42:53;;;;;;;8.35;3.92;;;-0.90;55.20;;;;;;4966573;28;115223;-81
2024/01/17 07:45:21;;;;;;;10.02;4.15;;;-0.80;54.80;;;;;;4948866;28;116096;-81
2024/01/17 07:47:48;;;;;;;9.57;4.10;;;-0.70;54.90;;;;;;4966138;28;114396;-81
2024/01/17 07:50:16;;;;;;;8.75;4.22;;;-0.60;54.90;;;;;;4966446;28;115046;-82
2024/01/17 07:52:44;;;;;;;8.30;4.10;;;-0.40;54.60;;;;;;4966088;28;115028;-82
2024/01/17 07:55:11;;;;;;;9.05;3.85;;;-0.40;54.40;;;;;;4964892;28;115269;-82
2024/01/17 07:57:38;;;;;;;6.10;3.30;;;-0.30;54.20;;;;;;4966318;28;114380;-80
2024/01/17 08:00:07;;;;;;;6.53;3.30;;;-0.30;53.90;;;;;;4949583;28;114915;-81
2024/01/17 08:02:40;;;;;;;;;;;-0.20;53.00;;;;;;4966328;28;115037;-82
2024/01/17 08:05:08;;;;;;;6.13;2.75;;;-0.30;52.50;;;;;;4965085;28;114879;-81
2024/01/17 08:07:35;;;;;;;8.55;3.97;;;-0.30;53.00;;;;;;4966398;28;114234;-81
2024/01/17 08:10:02;;;;;;;6.70;3.70;;;-0.30;51.70;;;;;;4965540;28;114599;-81
2024/01/17 08:12:35;;;;;;;8.27;4.07;;;-0.30;51.70;;;;;;4965698;28;115673;-80
2024/01/17 08:15:02;;;;;;;5.55;2.83;;;-0.30;52.10;;;;;;4965265;28;114449;-81
2024/01/17 08:17:31;;;;;;;6.75;3.35;;;-0.30;52.40;;;;;;4949364;28;114817;-82
2024/01/17 08:19:59;;;;;;;5.38;2.60;;;-0.30;52.30;;;;;;4965147;28;114751;-80
2024/01/17 08:22:29;;;;;;;5.47;2.75;;;-0.30;52.70;;;;;;4963404;28;117798;-81
2024/01/17 08:24:59;;;;;;;7.82;4.05;;;-0.20;52.50;;;;;;4980515;28;114814;-82
2024/01/17 08:27:30;;;;;;;6.15;2.70;;;-0.10;52.70;;;;;;4949663;28;114719;-82
2024/01/17 08:29:57;;;;;;;7.43;3.35;;;0.10;52.60;;;;;;4966606;28;114689;-82
2024/01/17 08:32:25;;;;;;;7.00;3.85;;;0.10;52.30;;;;;;4964437;28;115143;-81
2024/01/17 08:34:54;;;;;;;8.13;3.65;;;0.20;52.30;;;;;;4967594;28;115218;-81
2024/01/17 08:37:23;;;;;;;6.85;3.35;;;0.30;51.90;;;;;;4985228;28;114392;-82
2024/01/17 08:39:50;;;;;;;7.28;3.63;;;0.40;51.70;;;;;;4968488;28;114279;-81
2024/01/17 08:42:17;;;;;;;8.18;3.85;;;0.40;51.50;;;;;;4964434;28;118012;-81
2024/01/17 08:44:45;;;;;;;7.43;3.63;;;0.50;51.50;;;;;;4948188;28;116152;-81
2024/01/17 08:47:13;;;;;;;10.07;4.05;;;0.50;51.30;;;;;;4967463;28;114461;-80
2024/01/17 08:49:40;;;;;;;8.70;3.95;;;0.60;51.50;;;;;;4986833;28;114600;-82
2024/01/17 08:52:09;;;;;;;8.88;3.80;;;0.60;51.30;;;;;;4971881;28;115173;-81
2024/01/17 08:54:36;;;;;;;7.05;4.15;;;0.70;50.90;;;;;;4929370;28;116134;-81
2024/01/17 08:57:04;;;;;;;8.30;3.65;;;0.70;51.00;;;;;;4950587;28;114356;-81
2024/01/17 08:59:34;;;;;;;7.07;3.28;;;0.80;50.70;;;;;;4965717;28;114731;-82
2024/01/17 09:02:02;;;;;;;7.25;3.63;;;0.90;50.90;;;;;;4956157;28;115249;-81
2024/01/17 09:04:31;;;;;;;7.28;3.90;;;1.00;51.10;;;;;;4969589;28;114712;-82
2024/01/17 09:07:01;;;;;;;4.97;2.35;;;1.20;50.70;;;;;;4945224;28;114717;-81
2024/01/17 09:09:31;;;;;;;7.35;3.35;;;1.30;50.70;;;;;;4966296;28;114521;-80
2024/01/17 09:12:01;;;;;;;5.28;3.05;;;1.30;50.00;;;;;;4955148;28;114829;-81
2024/01/17 09:14:32;;;;;;;7.22;3.30;;;1.30;50.20;;;;;;4966452;28;115922;-82
2024/01/17 09:17:03;;;;;;;6.90;3.20;;;1.40;50.10;;;;;;4978147;28;114771;-82
2024/01/17 09:19:34;;;;;;;8.88;3.60;;;1.40;49.70;;;;;;4961689;28;114664;-80
2024/01/17 09:22:01;;;;;;;7.93;3.60;;;1.30;49.10;;;;;;4979580;28;115435;-81
2024/01/17 09:24:30;;;;;;;7.03;3.63;;;1.30;50.20;;;;;;4962198;28;114603;-82
2024/01/17 09:26:57;;;;;;;6.32;3.25;;;1.40;50.60;;;;;;4964211;28;114571;-81
2024/01/17 09:29:24;;;;;;;7.13;3.17;;;1.50;50.30;;;;;;4931871;28;116507;-82
2024/01/17 09:31:53;;;;;;;7.18;3.80;;;1.50;49.80;;;;;;4957952;28;115149;-83
2024/01/17 09:34:20;;;;;;;7.10;3.05;;;1.60;49.40;;;;;;4974711;28;114867;-83
2024/01/17 09:36:49;;;;;;;6.35;3.60;;;1.50;49.20;;;;;;4963878;28;114864;-83
2024/01/17 09:39:17;;;;;;;4.90;2.45;;;1.50;49.20;;;;;;4964766;28;114765;-82
2024/01/17 09:41:44;;;;;;;4.72;3.00;;;1.50;49.60;;;;;;4961927;28;116188;-82
2024/01/17 09:44:12;;;;;;;6.18;3.58;;;1.50;48.50;;;;;;4979408;28;114720;-82
2024/01/17 09:46:40;;;;;;;5.70;3.30;;;1.50;49.00;;;;;;4979061;28;114752;-82
2024/01/17 09:49:08;;;;;;;8.20;3.60;;;1.40;49.20;;;;;;4964358;28;114675;-81
2024/01/17 09:51:38;;;;;;;6.32;3.10;;;1.40;49.20;;;;;;4964135;28;115330;-82
2024/01/17 09:54:06;;;;;;;6.38;3.15;;;1.50;49.10;;;;;;4979839;28;114742;-83
2024/01/17 09:56:33;;;;;;;4.90;2.75;;;1.50;49.30;;;;;;4957769;28;114679;-82
2024/01/17 09:59:14;;;;;;;7.90;3.90;;;1.50;48.90;;;;;;4956164;28;115253;-83
2024/01/17 10:01:43;;;;;;;6.90;3.38;;;1.50;48.90;;;;;;4942305;28;117636;-81
2024/01/17 10:04:14;;;;;;;4.38;2.60;;;1.40;48.70;;;;;;4930214;28;114933;-82
2024/01/17 10:06:42;;;;;;;6.05;3.05;;;1.40;47.70;;;;;;4975254;28;114671;-81
2024/01/17 10:09:10;;;;;;;6.50;3.58;;;1.30;48.50;;;;;;4956014;28;114667;-82
2024/01/17 10:11:38;;;;;;;7.53;3.90;;;1.30;48.40;;;;;;4946143;28;116558;-82
2024/01/17 10:14:07;;;;;;;7.32;3.67;;;1.30;48.80;;;;;;4946614;28;115508;-81
2024/01/17 10:16:35;;;;;;;6.70;3.35;;;1.40;48.90;;;;;;4952280;28;114653;-81
2024/01/17 10:19:06;;;;;;;8.68;3.85;;;1.40;48.80;;;;;;4947106;28;114571;-82
2024/01/17 10:21:35;;;;;;;6.32;3.45;;;1.40;49.00;;;;;;4955611;28;114870;-82
2024/01/17 10:24:06;;;;;;;6.78;4.22;;;1.40;49.00;;;;;;4959728;28;114935;-81
2024/01/17 10:26:40;;;;;;;7.00;3.67;;;1.50;49.00;;;;;;4947023;28;114617;-82
2024/01/17 10:29:09;;;;;;;5.75;3.05;;;1.60;48.90;;;;;;4962013;28;114694;-83
2024/01/17 10:31:41;;;;;;;6.60;3.53;;;1.60;48.90;;;;;;4945083;28;118940;-83
2024/01/17 10:34:11;;;;;;;6.75;3.40;;;1.60;49.10;;;;;;4958094;28;114694;-82
2024/01/17 10:36:41;;;;;;;9.45;4.13;;;1.70;49.30;;;;;;4934572;28;114474;-82
2024/01/17 10:39:11;;;;;;;6.45;4.13;;;1.70;49.40;;;;;;4959513;28;114725;-81
2024/01/17 10:41:54;;;;;;;7.43;4.22;;;1.80;49.40;;;;;;4967456;28;116654;-83
2024/01/17 10:44:22;;;;;;;6.90;3.85;;;2.00;49.40;;;;;;4967014;28;115215;-83
2024/01/17 10:46:55;;;;;;;6.00;3.42;;;2.00;49.00;;;;;;4976479;28;115345;-82
2024/01/17 10:49:23;;;;;;;7.15;3.53;;;2.00;49.10;;;;;;4936698;28;115111;-81
2024/01/17 10:52:14;;;;;;;6.82;3.50;;;2.00;49.00;;;;;;4950350;28;116407;-80
2024/01/17 10:54:50;;;;;;;7.78;4.03;;;2.00;48.80;;;;;;4945886;28;115898;-81
2024/01/17 10:57:19;;;;;;;7.70;3.90;;;1.90;48.90;;;;;;4929151;28;114463;-82
2024/01/17 10:59:50;;;;;;;9.55;4.80;;;1.80;49.10;;;;;;4950271;28;114721;-81
2024/01/17 11:02:21;;;;;;;9.27;4.13;;;1.90;49.20;;;;;;4972821;28;115753;-83
2024/01/17 11:05:06;;;;;;;8.50;4.63;;;1.90;49.60;;;;;;4984123;28;114648;-82
2024/01/17 11:07:34;;;;;;;10.77;5.22;;;2.00;49.40;;;;;;4964806;28;114564;-82
2024/01/17 11:10:04;;;;;;;12.25;5.63;;;2.00;49.70;;;;;;4950336;28;114822;-82
2024/01/17 11:12:37;;;;;;;10.07;4.85;;;2.10;50.00;;;;;;4957922;28;115297;-82
2024/01/17 11:15:05;;;;;;;11.15;5.68;;;2.20;50.00;;;;;;4964381;28;117488;-81
2024/01/17 11:17:36;;;;;;;7.80;4.13;;;2.20;49.80;;;;;;4963314;28;115243;-83
2024/01/17 11:20:08;;;;;;;5.65;3.35;;;2.20;49.80;;;;;;4966912;28;114901;-82
2024/01/17 11:22:37;;;;;;;8.88;4.72;;;2.20;49.80;;;;;;4949961;28;115716;-83
2024/01/17 11:25:27;;;;;;;9.93;5.03;;;2.20;50.10;;;;;;4982859;28;117082;-82
2024/01/17 11:28:12;;;;;;;7.72;3.80;;;2.20;50.20;;;;;;4971356;28;114781;-81
2024/01/17 11:30:58;;;;;;;10.90;5.18;;;2.20;50.40;;;;;;4980710;28;114760;-82
2024/01/17 11:33:27;;;;;;;8.57;3.70;;;2.30;50.50;;;;;;4964672;28;115159;-82
2024/01/17 11:35:55;;;;;;;7.80;4.10;;;2.20;50.40;;;;;;4964836;28;115317;-83
2024/01/17 11:38:22;;;;;;;8.88;3.72;;;2.20;50.50;;;;;;4964776;28;114388;-82
2024/01/17 11:41:01;;;;;;;8.60;4.13;;;2.20;50.70;;;;;;4963990;28;114951;-82
2024/01/17 11:43:35;;;;;;;11.88;4.75;;;2.20;50.90;;;;;;4964371;28;115251;-82
2024/01/17 11:46:09;;;;;;;10.23;5.40;;;2.40;51.10;;;;;;4957797;28;115041;-82
2024/01/17 11:48:38;;;;;;;14.57;5.22;;;2.40;51.30;;;;;;4961364;28;114446;-82
2024/01/17 11:51:15;;;;;;;11.73;4.70;;;2.50;51.30;;;;;;4962048;28;114574;-82
2024/01/17 11:53:52;;;;;;;9.43;4.60;;;2.60;51.40;;;;;;4945600;28;115163;-82
2024/01/17 11:56:20;;;;;;;13.57;5.47;;;2.70;51.30;;;;;;4943716;28;116586;-82
2024/01/17 11:58:53;;;;;;;11.05;5.90;;;2.70;51.40;;;;;;4961230;28;114469;-82
2024/01/17 12:01:36;;;;;;;12.88;5.72;;;2.70;51.50;;;;;;4946362;28;114907;-82
2024/01/17 12:04:15;;;;;;;12.40;6.28;;;2.70;51.60;;;;;;4960312;28;115280;-82
2024/01/17 12:06:50;;;;;;;16.27;7.78;;;2.70;51.80;;;;;;4945258;28;115189;-82
2024/01/17 12:09:18;;;;;;;14.65;7.63;;;2.70;51.90;;;;;;4960050;28;114459;-82
2024/01/17 12:11:51;;;;;;;15.63;8.75;;;2.70;52.00;;;;;;4964957;28;115545;-82
2024/01/17 12:14:19;;;;;;;22.42;9.65;;;2.80;52.10;;;;;;4965611;28;114619;-82
2024/01/17 12:16:47;;;;;;;21.33;9.60;;;2.80;52.20;;;;;;4958671;28;114584;-83
2024/01/17 12:19:14;;;;;;;17.45;10.73;;;2.90;52.20;;;;;;4980404;28;114795;-81
2024/01/17 12:21:48;;;;;;;20.13;11.43;;;2.90;52.20;;;;;;4964300;28;114589;-82
2024/01/17 12:24:19;;;;;;;16.08;9.90;;;2.90;52.40;;;;;;4963413;28;118989;-81
2024/01/17 12:26:57;;;;;;;20.23;10.57;;;2.90;52.50;;;;;;4964788;28;114638;-83
2024/01/17 12:29:27;;;;;;;21.70;10.93;;;2.90;52.60;;;;;;4963264;28;114860;-82
2024/01/17 12:31:55;;;;;;;21.33;10.90;;;2.90;52.80;;;;;;4979849;28;114529;-83
2024/01/17 12:34:22;;;;;;;19.02;9.13;;;2.90;52.90;;;;;;4962640;28;116800;-82
2024/01/17 12:36:49;;;;;;;18.75;8.73;;;3.00;53.00;;;;;;4964099;28;114858;-83
2024/01/17 12:39:20;;;;;;;15.77;8.27;;;3.00;53.10;;;;;;4964408;28;114912;-82
2024/01/17 12:41:56;;;;;;;15.88;8.10;;;3.00;53.20;;;;;;4963452;28;117012;-81
2024/01/17 12:44:23;;;;;;;17.02;9.95;;;3.00;53.30;;;;;;4962495;28;115706;-83